Time;durP1;ratioP1;P1;durP2;ratioP2;P2;SDS_P1;SDS_P2;PMS_P1;PMS_P2;Temp;Humidity;BMP_temperature;BMP_pressure;BME280_temperature;BME280_humidity;BME280_pressure;Samples;Min_cycle;Max_cycle;Signal;HPM_P1;HPM_P2
2022/07/06 00:00:09;;;;;;;4.57;2.22;;;;;;;17.84;51.35;100153.72;10406234;28;20041;-69
2022/07/06 00:05:10;;;;;;;8.57;2.50;;;;;;;18.24;51.90;100226.75;10405582;28;20046;-70
2022/07/06 00:10:11;;;;;;;4.95;2.30;;;;;;;18.22;53.06;100253.06;10405911;28;20128;-68
2022/07/06 00:15:12;;;;;;;11.20;2.53;;;;;;;17.52;53.69;100154.53;10412748;28;20041;-68
2022/07/06 00:20:13;;;;;;;8.77;2.05;;;;;;;17.80;54.57;100225.88;10412518;28;20065;-67
2022/07/06 00:25:13;;;;;;;11.77;2.42;;;;;;;17.78;55.35;100274.47;10413470;28;20038;-68
2022/07/06 00:30:14;;;;;;;5.57;2.10;;;;;;;17.67;56.34;100261.69;10411303;28;20091;-68
2022/07/06 00:35:15;;;;;;;11.55;2.67;;;;;;;17.48;57.09;100258.09;10391148;28;20050;-70
2022/07/06 00:40:16;;;;;;;7.25;2.05;;;;;;;16.90;57.08;100172.25;10372221;28;20057;-67
2022/07/06 00:45:18;;;;;;;8.68;2.33;;;;;;;17.33;58.06;100279.84;10411727;28;20061;-68
2022/07/06 00:50:21;;;;;;;12.43;2.40;;;;;;;17.17;58.74;100258.88;10407217;28;20073;-67
2022/07/06 00:55:25;;;;;;;23.03;2.80;;;;;;;17.22;59.63;100272.47;10371440;28;20131;-70
2022/07/06 01:00:27;;;;;;;5.72;2.53;;;;;;;16.25;59.63;100131.25;10370034;28;20042;-68
2022/07/06 01:05:29;;;;;;;73.07;7.22;;;;;;;16.93;59.96;100267.63;10370387;28;20524;-71
2022/07/06 01:10:29;;;;;;;6.70;2.10;;;;;;;16.23;60.53;100160.09;10369945;28;20375;-68
2022/07/06 01:15:30;;;;;;;75.90;7.32;;;;;;;16.18;60.58;100160.72;10372704;28;20037;-66
2022/07/06 01:20:32;;;;;;;42.22;5.43;;;;;;;15.83;60.94;100141.41;10375116;28;20042;-66
2022/07/06 01:25:32;;;;;;;38.00;4.68;;;;;;;16.75;61.48;100297.75;10375074;28;20073;-66
2022/07/06 01:30:33;;;;;;;6.72;2.38;;;;;;;16.77;61.20;100304.59;10375761;28;20490;-66
2022/07/06 01:35:36;;;;;;;14.07;2.92;;;;;;;16.14;61.78;100194.31;10375197;28;20165;-66
2022/07/06 01:40:37;;;;;;;15.38;2.78;;;;;;;16.12;61.45;100189.19;10374296;28;20045;-67
2022/07/06 01:45:38;;;;;;;64.95;7.03;;;;;;;15.71;61.81;100134.00;10374600;28;20034;-66
2022/07/06 01:50:39;;;;;;;33.80;4.53;;;;;;;16.50;62.08;100274.28;10374449;28;20502;-69
2022/07/06 01:55:40;;;;;;;21.50;3.30;;;;;;;16.76;62.54;100304.81;10375046;28;20494;-66
2022/07/06 02:00:41;;;;;;;15.98;2.83;;;;;;;16.83;62.60;100300.25;10374071;28;20494;-66
2022/07/06 02:05:42;;;;;;;18.02;2.80;;;;;;;16.98;62.60;100311.56;10373422;28;20040;-66
2022/07/06 02:10:42;;;;;;;12.45;2.60;;;;;;;15.59;62.27;100055.28;10373528;28;20040;-67
2022/07/06 02:15:43;;;;;;;48.42;5.88;;;;;;;17.21;62.51;100294.97;10373968;28;20128;-66
2022/07/06 02:20:44;;;;;;;13.68;2.85;;;;;;;17.44;61.43;100293.63;10373043;28;20065;-66
2022/07/06 02:25:45;;;;;;;8.40;2.90;;;;;;;16.92;60.09;100199.72;10389652;28;20417;-66
2022/07/06 02:30:46;;;;;;;11.45;2.35;;;;;;;18.00;58.99;100306.34;10379176;28;20065;-66
2022/07/06 02:35:47;;;;;;;12.88;2.83;;;;;;;18.68;57.73;100303.69;10396214;28;20057;-66
2022/07/06 02:40:48;;;;;;;12.88;2.80;;;;;;;18.94;57.80;100301.81;10387551;28;20091;-67
2022/07/06 02:45:48;;;;;;;5.60;2.22;;;;;;;19.28;58.02;100315.72;10376262;28;20052;-67
2022/07/06 02:50:49;;;;;;;15.18;3.20;;;;;;;19.68;57.27;100309.84;10395661;28;20045;-67
2022/07/06 02:55:50;;;;;;;12.55;2.80;;;;;;;20.25;56.39;100318.31;10388079;28;20042;-66
2022/07/06 03:00:51;;;;;;;9.82;2.92;;;;;;;21.01;54.94;100308.47;10372430;28;20042;-66
2022/07/06 03:05:52;;;;;;;15.52;3.03;;;;;;;21.73;52.84;100264.78;10409389;28;20049;-66
2022/07/06 03:10:53;;;;;;;11.73;2.75;;;;;;;22.98;50.42;100299.78;10413035;28;20044;-67
2022/07/06 03:15:55;;;;;;;10.90;2.83;;;;;;;23.91;48.07;100286.19;10413860;28;20092;-67
2022/07/06 03:20:56;;;;;;;11.20;2.72;;;;;;;24.93;46.47;100313.28;10412321;28;20489;-67
2022/07/06 03:25:56;;;;;;;15.90;3.00;;;;;;;26.06;43.99;100309.84;10412935;28;20045;-67
2022/07/06 03:30:57;;;;;;;14.38;3.42;;;;;;;27.02;42.26;100310.81;10412549;28;20046;-67
2022/07/06 03:35:58;;;;;;;25.67;3.40;;;;;;;27.80;40.57;100300.38;10412380;28;20056;-68
2022/07/06 03:40:59;;;;;;;33.42;4.53;;;;;;;28.78;39.29;100307.44;10412526;28;20103;-68
2022/07/06 03:46:00;;;;;;;8.93;3.63;;;;;;;29.38;37.51;100307.00;10397563;28;20402;-68
2022/07/06 03:51:01;;;;;;;14.40;3.50;;;;;;;29.80;36.45;100306.16;10405603;28;20045;-67
2022/07/06 04:01:21;;;;;;;22.08;4.40;;;;;;;29.84;36.06;100328.28;10419545;28;20045;-68
2022/07/06 04:06:22;;;;;;;10.60;3.42;;;;;;;30.55;34.85;100307.13;10419596;28;20460;-68
2022/07/06 04:11:23;;;;;;;36.40;6.03;;;;;;;30.71;35.78;100321.34;10418859;28;20056;-68
2022/07/06 04:16:24;;;;;;;13.10;3.58;;;;;;;30.32;34.91;100306.16;10385179;28;20124;-69
2022/07/06 04:21:25;;;;;;;13.52;3.95;;;;;;;30.31;35.44;100320.97;10407945;28;20041;-69
2022/07/06 04:26:25;;;;;;;12.52;3.50;;;;;;;30.68;34.33;100298.06;10413409;28;20139;-69
2022/07/06 04:31:26;;;;;;;14.27;3.90;;;;;;;30.59;34.22;100321.03;10412880;28;20049;-69
2022/07/06 04:36:27;;;;;;;16.27;4.60;;;;;;;30.00;34.76;100313.25;10408287;28;20061;-73
2022/07/06 04:41:28;;;;;;;16.48;5.22;;;;;;;28.40;36.14;100191.69;10410537;28;20049;-71
2022/07/06 04:46:29;;;;;;;18.15;5.05;;;;;;;28.84;36.92;100310.94;10396414;28;20037;-71
2022/07/06 04:51:30;;;;;;;20.10;4.85;;;;;;;29.17;37.47;100308.34;10412046;28;20042;-71
2022/07/06 04:56:30;;;;;;;17.13;4.68;;;;;;;28.86;37.04;100286.84;10411587;28;20481;-70
2022/07/06 05:01:31;;;;;;;15.35;3.95;;;;;;;28.63;37.10;100266.59;10411622;28;20124;-68
2022/07/06 05:06:32;;;;;;;13.00;3.60;;;;;;;28.09;37.46;100145.59;10411309;28;20132;-69
2022/07/06 05:11:33;;;;;;;11.88;3.75;;;;;;;29.04;37.04;100286.09;10409472;28;20041;-69
2022/07/06 05:16:34;;;;;;;16.58;3.40;;;;;;;29.16;36.03;100282.13;10410420;28;20037;-70
2022/07/06 05:21:34;;;;;;;21.45;3.38;;;;;;;29.09;35.90;100260.59;10410073;28;20073;-71
2022/07/06 05:26:35;;;;;;;14.98;3.30;;;;;;;29.11;35.30;100258.41;10409888;28;20095;-70
2022/07/06 05:31:36;;;;;;;11.30;3.30;;;;;;;29.46;36.54;100269.94;10410495;28;20489;-70
2022/07/06 05:36:37;;;;;;;11.55;3.33;;;;;;;29.51;36.91;100267.94;10409542;28;20127;-71
2022/07/06 05:41:38;;;;;;;35.70;4.32;;;;;;;29.00;36.38;100155.69;10409326;28;20203;-68
2022/07/06 05:46:38;;;;;;;17.15;3.40;;;;;;;30.01;33.40;100262.81;10410331;28;20400;-69
2022/07/06 05:51:39;;;;;;;4.85;2.17;;;;;;;29.87;29.95;100212.66;10410296;28;20079;-70
2022/07/06 05:56:40;;;;;;;24.10;2.33;;;;;;;30.20;28.53;100267.44;10409882;28;20112;-69
2022/07/06 06:01:41;;;;;;;8.50;1.90;;;;;;;29.64;27.56;100136.94;10409147;28;20512;-69
2022/07/06 06:06:41;;;;;;;4.90;2.03;;;;;;;30.44;26.95;100245.38;10408026;28;20440;-70
2022/07/06 06:11:42;;;;;;;6.88;1.65;;;;;;;30.65;27.18;100274.00;10409389;28;20136;-72
2022/07/06 06:16:43;;;;;;;10.27;1.80;;;;;;;30.42;26.45;100192.78;10408184;28;20045;-71
2022/07/06 06:21:44;;;;;;;7.72;1.92;;;;;;;30.91;25.45;100251.59;10408442;28;20269;-72
2022/07/06 06:26:44;;;;;;;16.73;2.28;;;;;;;30.99;26.26;100245.38;10408765;28;20048;-71
2022/07/06 06:31:45;;;;;;;5.85;2.17;;;;;;;31.28;26.29;100247.75;10408078;28;20489;-72
2022/07/06 06:36:46;;;;;;;6.43;1.67;;;;;;;31.27;25.58;100237.91;10408511;28;20058;-71
2022/07/06 06:41:48;;;;;;;18.95;2.20;;;;;;;30.44;25.29;100103.66;10407161;28;20572;-70
2022/07/06 06:46:52;;;;;;;5.28;1.60;;;;;;;31.03;23.86;100231.88;10407606;28;20115;-69
2022/07/06 06:51:52;;;;;;;12.68;1.90;;;;;;;30.59;24.75;100140.09;10407046;28;20452;-70
2022/07/06 06:56:53;;;;;;;9.35;2.22;;;;;;;31.42;24.49;100255.19;10407176;28;20045;-70
2022/07/06 07:01:54;;;;;;;8.35;2.25;;;;;;;31.35;23.89;100241.88;10406754;28;20041;-71
2022/07/06 07:06:55;;;;;;;8.07;1.80;;;;;;;31.40;24.97;100252.75;10407667;28;20052;-71
2022/07/06 07:11:55;;;;;;;14.15;2.50;;;;;;;30.58;25.07;100103.66;10407115;28;20033;-71
2022/07/06 07:16:56;;;;;;;13.02;2.10;;;;;;;31.73;24.44;100249.78;10407153;28;20049;-70
2022/07/06 07:21:57;;;;;;;8.70;2.17;;;;;;;31.90;24.77;100254.63;10411005;28;20461;-70
2022/07/06 07:26:58;;;;;;;4.38;1.60;;;;;;;30.89;25.11;100124.91;10415042;28;20531;-69
2022/07/06 07:31:59;;;;;;;8.23;1.95;;;;;;;31.24;24.69;100145.22;10415378;28;20037;-70
2022/07/06 07:36:59;;;;;;;8.02;2.00;;;;;;;31.55;25.03;100213.94;10415188;28;20076;-70
2022/07/06 07:42:00;;;;;;;10.20;1.98;;;;;;;31.58;24.04;100257.25;10412839;28;20033;-71
2022/07/06 07:47:01;;;;;;;14.88;2.70;;;;;;;31.63;24.24;100242.59;10414650;28;20034;-70
2022/07/06 07:52:02;;;;;;;24.65;2.17;;;;;;;31.50;24.41;100200.38;10414221;28;20502;-73
2022/07/06 07:57:03;;;;;;;10.30;1.80;;;;;;;31.91;24.36;100256.22;10413973;28;20044;-71
2022/07/06 08:02:04;;;;;;;17.08;2.47;;;;;;;31.79;24.14;100208.13;10414143;28;20092;-69
2022/07/06 08:07:06;;;;;;;28.00;2.63;;;;;;;32.07;24.25;100243.75;10413681;28;20126;-71
2022/07/06 08:12:07;;;;;;;11.82;2.13;;;;;;;31.52;24.20;100153.38;10413593;28;20037;-71
2022/07/06 08:17:08;;;;;;;9.73;1.90;;;;;;;31.66;23.86;100136.81;10409252;28;20042;-70
2022/07/06 08:22:09;;;;;;;6.10;1.80;;;;;;;32.43;23.43;100231.78;10413435;28;20049;-71
2022/07/06 08:27:10;;;;;;;17.23;2.40;;;;;;;31.22;24.95;100032.22;10412410;28;20056;-72
2022/07/06 08:32:11;;;;;;;9.60;1.73;;;;;;;32.31;23.06;100201.31;10412079;28;20132;-72
2022/07/06 08:37:12;;;;;;;5.75;1.85;;;;;;;32.47;22.60;100222.59;10412035;28;20064;-72
2022/07/06 08:42:16;;;;;;;27.23;2.85;;;;;;;32.43;22.73;100209.81;10412384;28;20041;-72
2022/07/06 08:47:19;;;;;;;5.75;1.73;;;;;;;32.16;22.13;100199.78;10412695;28;20522;-72
2022/07/06 08:52:20;;;;;;;7.55;1.67;;;;;;;32.26;22.66;100202.28;10411449;28;20041;-73
2022/07/06 08:57:22;;;;;;;17.77;1.90;;;;;;;32.42;22.91;100222.72;10412368;28;20115;-73
2022/07/06 09:02:27;;;;;;;7.60;1.75;;;;;;;32.65;21.88;100222.69;10412221;28;20508;-71
2022/07/06 09:07:29;;;;;;;22.05;2.42;;;;;;;32.58;23.24;100227.81;10410981;28;20132;-74
2022/07/06 09:12:30;;;;;;;8.52;2.28;;;;;;;32.77;22.73;100214.63;10411412;28;20489;-72
2022/07/06 09:17:30;;;;;;;7.97;1.77;;;;;;;32.84;22.48;100217.69;10410802;28;20040;-73
2022/07/06 09:22:32;;;;;;;8.05;1.77;;;;;;;32.95;21.72;100199.75;10407641;28;20099;-73
2022/07/06 09:27:41;;;;;;;26.00;2.88;;;;;;;32.69;22.63;100199.69;10410072;28;20049;-72
2022/07/06 09:32:53;;;;;;;11.45;1.70;;;;;;;32.00;22.38;100104.03;10392149;28;20124;-73
2022/07/06 09:38:05;;;;;;;3.53;1.83;;;;;;;32.76;21.91;100201.16;10410169;28;20521;-73
2022/07/06 09:43:14;;;;;;;5.95;1.77;;;;;;;33.05;22.36;100209.66;10410440;28;20132;-72
2022/07/06 09:48:22;;;;;;;11.02;2.17;;;;;;;33.21;21.97;100217.44;10409859;28;20037;-73
2022/07/06 09:53:25;;;;;;;5.47;1.73;;;;;;;32.79;21.67;100178.53;10408870;28;20069;-72
2022/07/06 09:58:26;;;;;;;11.50;1.85;;;;;;;32.84;21.40;100197.63;10409357;28;20052;-72
2022/07/06 10:03:27;;;;;;;6.90;1.77;;;;;;;32.84;20.99;100194.88;10408479;28;20043;-73
2022/07/06 10:08:29;;;;;;;10.50;1.75;;;;;;;32.72;22.26;100138.53;10409205;28;20119;-72
2022/07/06 10:13:31;;;;;;;6.35;1.70;;;;;;;32.33;21.76;100078.94;10404630;28;20034;-72
2022/07/06 10:18:33;;;;;;;11.98;1.77;;;;;;;32.67;21.86;100116.72;10409115;28;20034;-72
2022/07/06 10:23:36;;;;;;;20.07;2.63;;;;;;;33.14;22.27;100177.44;10408353;28;20085;-72
2022/07/06 10:28:38;;;;;;;10.73;1.85;;;;;;;32.47;21.90;100060.38;10408108;28;20143;-72
2022/07/06 10:33:41;;;;;;;6.00;1.70;;;;;;;33.07;21.49;100157.06;10406443;28;20146;-73
2022/07/06 10:38:48;;;;;;;7.00;1.70;;;;;;;32.84;20.82;100134.34;10408552;28;20041;-73
2022/07/06 10:43:49;;;;;;;17.40;2.05;;;;;;;32.36;21.76;100044.50;10407205;28;20107;-72
2022/07/06 10:48:51;;;;;;;4.65;1.45;;;;;;;32.42;21.08;100048.72;10406164;28;20095;-73
2022/07/06 10:54:04;;;;;;;7.73;1.57;;;;;;;32.98;20.39;100151.56;10378496;28;20505;-72
2022/07/06 10:59:13;;;;;;;8.25;1.75;;;;;;;32.97;19.78;100158.19;10406844;28;20124;-72
2022/07/06 11:04:15;;;;;;;19.00;3.08;;;;;;;33.09;21.25;100136.34;10393621;28;20044;-72
2022/07/06 11:09:16;;;;;;;5.20;1.80;;;;;;;33.27;21.17;100123.38;10366310;28;20049;-72
2022/07/06 11:14:18;;;;;;;12.68;1.80;;;;;;;33.19;21.31;100136.00;10395229;28;20034;-73
2022/07/06 11:19:20;;;;;;;11.07;1.73;;;;;;;33.01;21.25;100109.63;10404049;28;20049;-72
2022/07/06 11:24:26;;;;;;;5.30;1.50;;;;;;;33.14;19.69;100135.38;10405793;28;20505;-73
2022/07/06 11:29:29;;;;;;;14.85;1.77;;;;;;;32.41;20.53;100033.34;10406417;28;20084;-72
2022/07/06 11:34:34;;;;;;;12.10;2.38;;;;;;;33.14;19.64;100113.34;10405223;28;20049;-73
2022/07/06 11:39:41;;;;;;;6.05;1.67;;;;;;;32.79;21.07;100052.81;10405908;28;20568;-72
2022/07/06 11:44:42;;;;;;;11.25;1.80;;;;;;;32.43;20.35;100018.16;10407185;28;20532;-73
2022/07/06 11:49:45;;;;;;;20.00;2.22;;;;;;;32.89;20.64;100076.44;10404796;28;20124;-72
2022/07/06 11:54:46;;;;;;;18.33;1.92;;;;;;;33.38;21.05;100119.13;10406179;28;20128;-72
2022/07/06 11:59:51;;;;;;;11.32;2.00;;;;;;;33.18;20.50;100095.06;10405654;28;20128;-72
2022/07/06 12:04:52;;;;;;;22.35;2.67;;;;;;;33.38;21.63;100102.63;10405153;28;20128;-73
2022/07/06 12:09:53;;;;;;;8.50;2.05;;;;;;;33.34;21.42;100095.34;10413435;28;20038;-73
2022/07/06 12:14:53;;;;;;;16.35;1.88;;;;;;;32.64;22.10;100007.34;10412910;28;20088;-73
2022/07/06 12:19:55;;;;;;;29.13;4.30;;;;;;;33.16;22.15;100100.88;10411980;28;20044;-73
2022/07/06 12:24:55;;;;;;;30.13;3.83;;;;;;;32.76;21.38;100030.63;10413117;28;20041;-73
2022/07/06 12:30:08;;;;;;;17.63;2.05;;;;;;;32.83;21.30;100080.47;10412698;28;20767;-73
2022/07/06 12:35:11;;;;;;;12.07;1.85;;;;;;;32.89;21.64;100101.19;10412766;28;20061;-72
2022/07/06 12:40:13;;;;;;;14.27;2.00;;;;;;;32.50;21.60;100029.50;10405692;28;20046;-75
2022/07/06 12:45:14;;;;;;;6.45;1.70;;;;;;;32.85;21.00;100084.53;10386812;28;20049;-73
2022/07/06 12:50:15;;;;;;;20.13;2.30;;;;;;;32.87;21.25;100073.19;10378781;28;20044;-71
2022/07/06 12:55:15;;;;;;;30.65;3.60;;;;;;;32.03;20.92;99965.22;10385772;28;20081;-71
2022/07/06 13:00:18;;;;;;;9.32;1.52;;;;;;;32.60;20.98;100085.31;10370375;28;20046;-73
2022/07/06 13:05:27;;;;;;;11.38;2.00;;;;;;;32.38;20.70;100045.78;10370647;28;20060;-72
2022/07/06 13:10:30;;;;;;;9.80;1.80;;;;;;;32.42;20.63;100071.50;10384091;28;20497;-73
2022/07/06 13:15:31;;;;;;;12.48;2.15;;;;;;;32.32;21.28;100058.06;10407024;28;20049;-71
2022/07/06 13:20:32;;;;;;;28.20;1.95;;;;;;;32.32;21.08;100043.53;10416787;28;20128;-71
2022/07/06 13:25:32;;;;;;;9.10;1.90;;;;;;;32.13;20.97;100050.13;10415924;28;20081;-73
2022/07/06 13:30:33;;;;;;;15.55;1.73;;;;;;;32.25;21.21;100066.00;10416907;28;20567;-71
2022/07/06 13:35:34;;;;;;;7.28;1.50;;;;;;;32.19;20.85;100040.59;10416642;28;20061;-71
2022/07/06 13:40:35;;;;;;;4.63;1.60;;;;;;;31.80;21.28;99981.81;10415358;28;20072;-71
2022/07/06 13:45:37;;;;;;;7.30;1.67;;;;;;;32.15;20.93;100047.03;10413963;28;20049;-72
2022/07/06 13:50:38;;;;;;;11.20;1.60;;;;;;;32.26;20.84;100065.66;10415211;28;20064;-71
2022/07/06 13:55:39;;;;;;;9.27;1.95;;;;;;;32.25;20.68;100061.31;10415106;28;20060;-71
2022/07/06 14:00:40;;;;;;;22.88;1.80;;;;;;;31.43;20.90;99946.63;10414725;28;20051;-71
2022/07/06 14:05:40;;;;;;;4.63;1.83;;;;;;;31.98;20.37;100048.63;10414972;28;20793;-72
2022/07/06 14:10:41;;;;;;;16.95;2.28;;;;;;;31.45;21.12;99975.38;10415401;28;20038;-72
2022/07/06 14:15:43;;;;;;;11.50;1.65;;;;;;;31.84;20.98;100051.44;10414385;28;20052;-72
2022/07/06 14:20:45;;;;;;;11.18;3.22;;;;;;;31.67;20.97;100047.81;10414537;28;20068;-71
2022/07/06 14:25:46;;;;;;;12.80;2.20;;;;;;;31.58;21.30;100039.53;10393652;28;20044;-71
2022/07/06 14:30:47;;;;;;;13.85;1.90;;;;;;;31.49;20.77;100022.22;10372483;28;20053;-71
2022/07/06 14:35:53;;;;;;;7.47;1.60;;;;;;;31.61;20.90;100063.63;10372588;28;20535;-71
2022/07/06 14:40:53;;;;;;;7.45;1.55;;;;;;;31.25;20.73;100039.81;10372507;28;20497;-71
2022/07/06 14:45:54;;;;;;;17.60;2.33;;;;;;;30.83;20.45;99967.91;10372237;28;20045;-72
2022/07/06 14:50:55;;;;;;;12.50;1.90;;;;;;;31.42;21.18;100085.81;10387974;28;20246;-71
2022/07/06 14:55:56;;;;;;;7.43;2.00;;;;;;;30.69;20.96;99976.19;10371979;28;20049;-72
2022/07/06 15:00:57;;;;;;;12.32;1.80;;;;;;;31.14;21.40;100082.34;10372936;28;20053;-71
2022/07/06 15:05:58;;;;;;;13.52;1.50;;;;;;;30.99;21.70;100079.97;10371037;28;20049;-71
2022/07/06 15:10:59;;;;;;;21.63;2.67;;;;;;;30.81;21.55;100071.63;10371743;28;20037;-71
2022/07/06 15:15:59;;;;;;;5.28;1.42;;;;;;;30.54;21.87;100055.22;10371638;28;20050;-70
2022/07/06 15:21:00;;;;;;;8.40;1.50;;;;;;;30.67;21.70;100079.06;10371024;28;20042;-71
2022/07/06 15:26:04;;;;;;;13.98;2.50;;;;;;;29.97;21.68;99971.47;10371997;28;20038;-71
2022/07/06 15:31:05;;;;;;;16.48;2.00;;;;;;;30.34;21.62;100061.97;10371782;28;20073;-69
2022/07/06 15:36:06;;;;;;;10.38;2.28;;;;;;;30.09;22.32;100042.16;10372066;28;20140;-71
2022/07/06 15:41:07;;;;;;;7.72;1.50;;;;;;;30.19;22.21;100079.50;10373767;28;20050;-72
2022/07/06 15:46:07;;;;;;;9.55;1.80;;;;;;;30.06;22.17;100074.84;10380017;28;20452;-71
2022/07/06 15:51:08;;;;;;;13.60;2.08;;;;;;;29.88;22.29;100087.50;10379893;28;20048;-70
2022/07/06 15:56:09;;;;;;;8.70;1.40;;;;;;;29.68;22.89;100085.97;10379323;28;20045;-71
2022/07/06 16:01:10;;;;;;;8.32;1.67;;;;;;;28.80;22.96;99970.88;10382734;28;20065;-74
2022/07/06 16:06:11;;;;;;;7.07;1.60;;;;;;;29.06;22.99;100043.22;10398690;28;20412;-72
2022/07/06 16:11:16;;;;;;;21.70;2.20;;;;;;;29.03;23.32;100068.41;10378142;28;20046;-73
2022/07/06 16:16:17;;;;;;;16.58;2.10;;;;;;;28.94;23.64;100078.38;10378458;28;20046;-72
2022/07/06 16:21:18;;;;;;;15.10;2.03;;;;;;;28.67;23.40;100076.31;10421139;28;20042;-72
2022/07/06 16:26:19;;;;;;;15.48;1.80;;;;;;;27.89;23.85;99976.53;10418839;28;20049;-72
2022/07/06 16:31:19;;;;;;;12.88;1.50;;;;;;;28.36;23.85;100089.53;10418099;28;20044;-73
2022/07/06 16:36:20;;;;;;;23.63;2.28;;;;;;;27.33;24.26;99958.06;10418726;28;20065;-73
2022/07/06 16:41:21;;;;;;;26.55;2.60;;;;;;;27.81;24.52;100076.25;10418375;28;20083;-72
2022/07/06 16:46:22;;;;;;;27.88;2.53;;;;;;;27.63;24.80;100082.41;10417684;28;20037;-73
2022/07/06 16:51:23;;;;;;;18.55;1.88;;;;;;;27.44;24.94;100095.97;10418055;28;20072;-73
2022/07/06 16:56:24;;;;;;;8.15;1.60;;;;;;;27.22;24.92;100099.97;10415913;28;20115;-73
2022/07/06 17:01:25;;;;;;;30.67;3.83;;;;;;;26.23;25.15;99960.22;10416771;28;20037;-72
2022/07/06 17:06:26;;;;;;;21.02;2.15;;;;;;;26.25;25.27;100009.78;10408362;28;20045;-73
2022/07/06 17:11:30;;;;;;;14.25;1.80;;;;;;;26.63;25.27;100103.59;10411596;28;20124;-73
2022/07/06 17:16:30;;;;;;;;;;;;;;;26.62;25.05;100110.94;10411469;28;20041;-71
2022/07/06 17:21:31;;;;;;;17.90;2.03;;;;;;;25.69;25.00;100013.50;10384603;28;20401;-71
2022/07/06 17:26:32;;;;;;;14.88;2.05;;;;;;;25.76;25.65;100052.13;10411488;28;20060;-71
2022/07/06 17:31:33;;;;;;;12.23;1.90;;;;;;;26.00;25.28;100128.56;10391002;28;20385;-71
2022/07/06 17:36:34;;;;;;;12.90;1.98;;;;;;;25.08;25.71;99991.81;10416195;28;20501;-71
2022/07/06 17:41:35;;;;;;;14.15;2.17;;;;;;;25.33;25.94;100083.44;10374817;28;20087;-71
2022/07/06 17:46:37;;;;;;;38.70;3.45;;;;;;;24.43;26.82;99962.44;10401942;28;20056;-72
2022/07/06 17:51:38;;;;;;;32.15;3.17;;;;;;;25.42;28.78;100142.44;10415974;28;20408;-71
2022/07/06 17:56:38;;;;;;;23.55;3.58;;;;;;;25.21;33.17;100121.78;10388259;28;20037;-71
2022/07/06 18:01:39;;;;;;;35.42;3.83;;;;;;;25.24;36.09;100132.91;10407040;28;20052;-71
2022/07/06 18:06:40;;;;;;;24.05;3.38;;;;;;;25.19;38.19;100134.84;10414541;28;20436;-71
2022/07/06 18:11:41;;;;;;;25.58;3.65;;;;;;;24.69;39.77;100068.41;10408704;28;20053;-69
2022/07/06 18:16:42;;;;;;;22.52;3.47;;;;;;;25.16;40.77;100152.50;10383099;28;20040;-70
2022/07/06 18:21:44;;;;;;;22.75;3.83;;;;;;;25.04;42.09;100165.50;10374313;28;20401;-70
2022/07/06 18:26:45;;;;;;;36.78;4.65;;;;;;;24.95;42.55;100170.63;10397004;28;20051;-71
2022/07/06 18:31:46;;;;;;;22.40;3.83;;;;;;;24.80;43.39;100165.97;10401991;28;20085;-69
2022/07/06 18:36:47;;;;;;;31.33;4.22;;;;;;;23.65;44.04;100003.88;10411160;28;20073;-69
2022/07/06 18:41:48;;;;;;;31.58;4.50;;;;;;;24.38;44.86;100147.03;10410316;28;20566;-70
2022/07/06 18:46:49;;;;;;;24.77;3.90;;;;;;;23.67;44.99;100049.72;10409308;28;20045;-69
2022/07/06 18:51:49;;;;;;;18.15;3.00;;;;;;;23.99;45.55;100133.78;10410090;28;20045;-70
2022/07/06 18:56:50;;;;;;;16.83;3.08;;;;;;;24.06;46.66;100152.53;10410677;28;20041;-68
2022/07/06 19:01:51;;;;;;;17.73;3.05;;;;;;;24.04;47.75;100163.63;10408576;28;20132;-70
2022/07/06 19:06:52;;;;;;;21.92;2.95;;;;;;;24.01;48.24;100166.06;10402611;28;20037;-71
2022/07/06 19:11:53;;;;;;;12.27;2.67;;;;;;;23.71;48.77;100131.41;10388971;28;20057;-70
2022/07/06 19:16:55;;;;;;;13.32;2.45;;;;;;;23.82;49.75;100154.81;10387765;28;20038;-70
2022/07/06 19:21:56;;;;;;;21.38;2.60;;;;;;;23.75;50.51;100168.56;10394130;28;20168;-71
2022/07/06 19:26:56;;;;;;;30.55;4.25;;;;;;;23.74;51.24;100166.94;10397175;28;20049;-70
2022/07/06 19:31:57;;;;;;;11.95;2.70;;;;;;;23.67;51.57;100166.34;10397422;28;20042;-70
2022/07/06 19:36:59;;;;;;;11.38;2.47;;;;;;;23.59;52.06;100166.81;10426052;28;20057;-71
2022/07/06 19:41:59;;;;;;;11.30;2.33;;;;;;;23.16;52.48;100115.19;10379943;28;20068;-70
2022/07/06 19:47:00;;;;;;;13.63;2.25;;;;;;;23.40;52.79;100158.25;10418173;28;20064;-71
2022/07/06 19:52:02;;;;;;;7.88;2.13;;;;;;;23.21;53.50;100157.78;10418643;28;20038;-70
2022/07/06 19:57:03;;;;;;;7.38;2.47;;;;;;;22.75;53.60;100105.81;10420117;28;20037;-70
2022/07/06 20:02:04;;;;;;;11.18;2.85;;;;;;;22.31;53.83;100030.88;10419295;28;20076;-69
2022/07/06 20:07:05;;;;;;;7.15;2.08;;;;;;;22.30;54.68;100056.31;10397443;28;20514;-71
2022/07/06 20:12:06;;;;;;;12.57;2.33;;;;;;;21.80;54.90;99992.34;10380024;28;20152;-71
2022/07/06 20:17:07;;;;;;;8.00;2.20;;;;;;;22.30;54.85;100079.84;10389843;28;20042;-70
2022/07/06 20:22:08;;;;;;;9.13;2.45;;;;;;;22.55;55.34;100122.63;10381660;28;20037;-70
2022/07/06 20:27:11;;;;;;;8.68;1.95;;;;;;;22.57;55.65;100142.16;10416061;28;20046;-71
2022/07/06 20:32:12;;;;;;;14.20;2.70;;;;;;;22.54;55.73;100156.19;10386557;28;20045;-71
2022/07/06 20:37:13;;;;;;;8.93;2.20;;;;;;;22.43;56.15;100147.13;10392315;28;20058;-71
2022/07/06 20:42:13;;;;;;;5.22;2.00;;;;;;;21.60;56.22;100025.34;10377377;28;20050;-71
2022/07/06 20:47:15;;;;;;;8.27;2.00;;;;;;;21.49;56.21;100020.03;10399116;28;20064;-72
2022/07/06 20:52:16;;;;;;;5.88;1.90;;;;;;;22.21;55.78;100147.09;10417465;28;20239;-71
2022/07/06 20:57:17;;;;;;;12.07;2.13;;;;;;;21.94;54.53;100119.09;10417609;28;20136;-71
2022/07/06 21:02:18;;;;;;;6.28;2.08;;;;;;;21.22;53.83;100012.56;10414680;28;20033;-70
2022/07/06 21:07:19;;;;;;;8.20;1.92;;;;;;;21.68;53.36;100102.47;10417028;28;20136;-71
2022/07/06 21:12:20;;;;;;;29.17;2.55;;;;;;;21.74;53.39;100133.94;10417236;28;20069;-71
2022/07/06 21:17:22;;;;;;;10.20;2.33;;;;;;;21.63;52.99;100132.16;10415824;28;20370;-71
2022/07/06 21:22:22;;;;;;;10.18;2.08;;;;;;;21.39;53.36;100113.41;10417388;28;20049;-70
2022/07/06 21:27:23;;;;;;;11.43;2.70;;;;;;;21.51;53.89;100147.59;10416097;28;20456;-71
2022/07/06 21:32:24;;;;;;;4.57;1.98;;;;;;;21.43;54.25;100133.44;10416913;28;20131;-71
2022/07/06 21:37:26;;;;;;;3.70;1.80;;;;;;;19.89;54.16;99896.06;10415353;28;20050;-72
2022/07/06 21:42:27;;;;;;;7.85;2.63;;;;;;;21.14;54.75;100107.50;10414868;28;20052;-72
2022/07/06 21:47:28;;;;;;;5.32;2.05;;;;;;;20.81;54.78;100079.38;10415984;28;20049;-71
2022/07/06 21:52:29;;;;;;;8.32;2.70;;;;;;;20.82;55.15;100086.44;10415737;28;20048;-71
2022/07/06 21:57:30;;;;;;;6.65;2.00;;;;;;;21.08;55.48;100144.41;10414876;28;20046;-72
2022/07/06 22:02:30;;;;;;;7.43;2.30;;;;;;;20.09;55.33;100003.50;10411741;28;20084;-73
2022/07/06 22:07:31;;;;;;;4.18;1.92;;;;;;;20.89;56.13;100135.69;10414926;28;20493;-73
2022/07/06 22:12:32;;;;;;;5.63;2.30;;;;;;;20.90;55.72;100147.31;10415282;28;20045;-73
2022/07/06 22:17:33;;;;;;;7.28;2.50;;;;;;;19.93;55.94;99999.66;10414502;28;20043;-73
2022/07/06 22:22:34;;;;;;;9.50;2.20;;;;;;;20.84;56.33;100156.38;10414117;28;20069;-73
2022/07/06 22:27:35;;;;;;;7.60;2.28;;;;;;;20.79;56.45;100159.81;10413714;28;20460;-73
2022/07/06 22:32:35;;;;;;;7.93;2.60;;;;;;;20.50;56.80;100131.94;10414031;28;20052;-73
2022/07/06 22:37:36;;;;;;;11.90;2.25;;;;;;;20.59;56.94;100154.00;10414160;28;20053;-73
2022/07/06 22:42:37;;;;;;;6.43;2.72;;;;;;;20.45;57.33;100159.59;10413229;28;20490;-73
2022/07/06 22:47:38;;;;;;;5.45;2.00;;;;;;;19.52;57.91;100039.16;10413878;28;20037;-73
2022/07/06 22:52:39;;;;;;;9.32;2.20;;;;;;;19.93;58.40;100131.75;10412641;28;20041;-73
2022/07/06 22:57:40;;;;;;;7.78;2.90;;;;;;;19.79;58.69;100150.84;10413579;28;20033;-73